sensor_id;sensor_type;location;lat;lon;timestamp;P1;durP1;ratioP1;P2;durP2;ratioP2
36839;SDS011;24406;51.640;9.566;2023-07-02T00:00:43;8.10;;;7.30;;
36839;SDS011;24406;51.640;9.566;2023-07-02T00:05:45;9.02;;;8.32;;
36839;SDS011;24406;51.640;9.566;2023-07-02T00:10:47;9.88;;;7.53;;
36839;SDS011;24406;51.640;9.566;2023-07-02T00:15:49;10.38;;;8.52;;
36839;SDS011;24406;51.640;9.566;2023-07-02T00:20:51;11.50;;;8.80;;
36839;SDS011;24406;51.640;9.566;2023-07-02T00:25:52;9.52;;;8.73;;
36839;SDS011;24406;51.640;9.566;2023-07-02T00:30:55;9.80;;;7.85;;
36839;SDS011;24406;51.640;9.566;2023-07-02T00:35:58;13.52;;;8.48;;
36839;SDS011;24406;51.640;9.566;2023-07-02T00:41:00;10.85;;;9.77;;
36839;SDS011;24406;51.640;9.566;2023-07-02T00:46:04;16.88;;;10.25;;
36839;SDS011;24406;51.640;9.566;2023-07-02T00:51:06;14.52;;;12.02;;
36839;SDS011;24406;51.640;9.566;2023-07-02T00:56:08;16.50;;;14.85;;
36839;SDS011;24406;51.640;9.566;2023-07-02T01:01:11;17.52;;;15.38;;
36839;SDS011;24406;51.640;9.566;2023-07-02T01:06:12;17.63;;;14.80;;
36839;SDS011;24406;51.640;9.566;2023-07-02T01:11:14;20.17;;;15.07;;
36839;SDS011;24406;51.640;9.566;2023-07-02T01:16:17;17.33;;;15.55;;
36839;SDS011;24406;51.640;9.566;2023-07-02T01:21:20;18.00;;;16.15;;
36839;SDS011;24406;51.640;9.566;2023-07-02T01:26:22;21.13;;;16.08;;
36839;SDS011;24406;51.640;9.566;2023-07-02T01:31:24;17.40;;;15.80;;
36839;SDS011;24406;51.640;9.566;2023-07-02T01:36:28;23.17;;;18.33;;
36839;SDS011;24406;51.640;9.566;2023-07-02T01:41:29;20.17;;;18.23;;
36839;SDS011;24406;51.640;9.566;2023-07-02T01:46:30;18.98;;;17.10;;
36839;SDS011;24406;51.640;9.566;2023-07-02T01:51:33;19.33;;;17.63;;
36839;SDS011;24406;51.640;9.566;2023-07-02T01:56:35;20.05;;;18.08;;
36839;SDS011;24406;51.640;9.566;2023-07-02T02:01:36;20.50;;;18.13;;
36839;SDS011;24406;51.640;9.566;2023-07-02T02:06:42;18.58;;;16.98;;
36839;SDS011;24406;51.640;9.566;2023-07-02T02:11:45;21.27;;;19.13;;
36839;SDS011;24406;51.640;9.566;2023-07-02T02:16:47;19.83;;;17.85;;
36839;SDS011;24406;51.640;9.566;2023-07-02T02:21:49;24.33;;;21.75;;
36839;SDS011;24406;51.640;9.566;2023-07-02T02:26:51;23.35;;;20.98;;
36839;SDS011;24406;51.640;9.566;2023-07-02T02:31:52;23.48;;;21.10;;
36839;SDS011;24406;51.640;9.566;2023-07-02T02:36:56;19.65;;;17.85;;
36839;SDS011;24406;51.640;9.566;2023-07-02T02:41:57;19.00;;;17.13;;
36839;SDS011;24406;51.640;9.566;2023-07-02T02:46:58;19.35;;;17.35;;
36839;SDS011;24406;51.640;9.566;2023-07-02T02:52:02;19.35;;;16.60;;
36839;SDS011;24406;51.640;9.566;2023-07-02T02:57:04;19.33;;;17.52;;
36839;SDS011;24406;51.640;9.566;2023-07-02T03:02:05;19.50;;;17.58;;
36839;SDS011;24406;51.640;9.566;2023-07-02T03:07:08;17.75;;;15.95;;
36839;SDS011;24406;51.640;9.566;2023-07-02T03:12:10;20.13;;;16.23;;
36839;SDS011;24406;51.640;9.566;2023-07-02T03:17:12;16.60;;;14.85;;
36839;SDS011;24406;51.640;9.566;2023-07-02T03:22:15;16.38;;;14.85;;
36839;SDS011;24406;51.640;9.566;2023-07-02T03:27:16;15.68;;;13.38;;
36839;SDS011;24406;51.640;9.566;2023-07-02T03:32:18;16.05;;;13.57;;
36839;SDS011;24406;51.640;9.566;2023-07-02T03:37:21;16.58;;;14.93;;
36839;SDS011;24406;51.640;9.566;2023-07-02T03:42:22;18.02;;;14.32;;
36839;SDS011;24406;51.640;9.566;2023-07-02T03:47:24;16.38;;;13.32;;
36839;SDS011;24406;51.640;9.566;2023-07-02T03:52:26;15.55;;;14.02;;
36839;SDS011;24406;51.640;9.566;2023-07-02T03:57:28;15.77;;;14.23;;
36839;SDS011;24406;51.640;9.566;2023-07-02T04:02:30;15.82;;;14.13;;
36839;SDS011;24406;51.640;9.566;2023-07-02T04:07:33;17.15;;;14.50;;
36839;SDS011;24406;51.640;9.566;2023-07-02T04:12:34;14.98;;;13.57;;
36839;SDS011;24406;51.640;9.566;2023-07-02T04:17:36;14.50;;;13.23;;
36839;SDS011;24406;51.640;9.566;2023-07-02T04:22:38;14.90;;;13.23;;
36839;SDS011;24406;51.640;9.566;2023-07-02T04:27:40;14.10;;;12.60;;
36839;SDS011;24406;51.640;9.566;2023-07-02T04:32:42;12.75;;;11.55;;
36839;SDS011;24406;51.640;9.566;2023-07-02T04:37:45;12.55;;;11.15;;
36839;SDS011;24406;51.640;9.566;2023-07-02T04:42:46;12.13;;;10.57;;
36839;SDS011;24406;51.640;9.566;2023-07-02T04:47:48;16.75;;;11.57;;
36839;SDS011;24406;51.640;9.566;2023-07-02T04:52:50;12.50;;;11.10;;
36839;SDS011;24406;51.640;9.566;2023-07-02T04:57:52;12.93;;;10.32;;
36839;SDS011;24406;51.640;9.566;2023-07-02T05:02:53;10.68;;;9.43;;
36839;SDS011;24406;51.640;9.566;2023-07-02T05:07:56;8.10;;;7.30;;
36839;SDS011;24406;51.640;9.566;2023-07-02T05:12:58;8.43;;;7.70;;
36839;SDS011;24406;51.640;9.566;2023-07-02T05:17:59;13.07;;;7.68;;
36839;SDS011;24406;51.640;9.566;2023-07-02T05:23:02;9.30;;;7.68;;
36839;SDS011;24406;51.640;9.566;2023-07-02T05:28:03;9.00;;;7.13;;
36839;SDS011;24406;51.640;9.566;2023-07-02T05:33:05;7.53;;;6.70;;
36839;SDS011;24406;51.640;9.566;2023-07-02T05:38:08;7.85;;;7.18;;
36839;SDS011;24406;51.640;9.566;2023-07-02T05:43:09;11.10;;;7.20;;
36839;SDS011;24406;51.640;9.566;2023-07-02T05:48:11;8.07;;;7.22;;
36839;SDS011;24406;51.640;9.566;2023-07-02T05:59:35;8.23;;;7.43;;
36839;SDS011;24406;51.640;9.566;2023-07-02T06:05:17;9.93;;;8.45;;
36839;SDS011;24406;51.640;9.566;2023-07-02T06:11:27;11.13;;;9.50;;
36839;SDS011;24406;51.640;9.566;2023-07-02T06:16:55;9.20;;;8.38;;
36839;SDS011;24406;51.640;9.566;2023-07-02T06:22:55;14.57;;;9.02;;
36839;SDS011;24406;51.640;9.566;2023-07-02T06:28:19;11.45;;;9.63;;
36839;SDS011;24406;51.640;9.566;2023-07-02T06:39:42;17.20;;;12.45;;
36839;SDS011;24406;51.640;9.566;2023-07-02T06:45:31;16.40;;;12.30;;
36839;SDS011;24406;51.640;9.566;2023-07-02T06:50:59;16.10;;;12.50;;
36839;SDS011;24406;51.640;9.566;2023-07-02T06:56:28;15.65;;;12.88;;
36839;SDS011;24406;51.640;9.566;2023-07-02T07:01:29;22.67;;;14.50;;
36839;SDS011;24406;51.640;9.566;2023-07-02T07:06:31;16.73;;;13.15;;
36839;SDS011;24406;51.640;9.566;2023-07-02T07:11:33;18.20;;;13.02;;
36839;SDS011;24406;51.640;9.566;2023-07-02T07:16:35;19.13;;;11.98;;
36839;SDS011;24406;51.640;9.566;2023-07-02T07:21:36;17.30;;;11.82;;
36839;SDS011;24406;51.640;9.566;2023-07-02T07:26:39;20.20;;;11.93;;
36839;SDS011;24406;51.640;9.566;2023-07-02T07:31:40;21.67;;;11.32;;
36839;SDS011;24406;51.640;9.566;2023-07-02T07:36:42;17.65;;;10.90;;
36839;SDS011;24406;51.640;9.566;2023-07-02T07:41:47;22.58;;;10.75;;
36839;SDS011;24406;51.640;9.566;2023-07-02T07:46:49;18.92;;;10.75;;
36839;SDS011;24406;51.640;9.566;2023-07-02T07:51:50;18.65;;;9.70;;
36839;SDS011;24406;51.640;9.566;2023-07-02T07:56:53;16.83;;;9.90;;
36839;SDS011;24406;51.640;9.566;2023-07-02T08:01:55;21.00;;;10.13;;
36839;SDS011;24406;51.640;9.566;2023-07-02T08:06:56;18.52;;;9.73;;
36839;SDS011;24406;51.640;9.566;2023-07-02T08:11:59;21.83;;;11.30;;
36839;SDS011;24406;51.640;9.566;2023-07-02T08:17:00;19.85;;;10.57;;
36839;SDS011;24406;51.640;9.566;2023-07-02T08:22:02;24.73;;;10.40;;
36839;SDS011;24406;51.640;9.566;2023-07-02T08:27:05;19.85;;;10.57;;
36839;SDS011;24406;51.640;9.566;2023-07-02T08:32:07;23.58;;;11.52;;
36839;SDS011;24406;51.640;9.566;2023-07-02T08:37:09;19.65;;;10.27;;
36839;SDS011;24406;51.640;9.566;2023-07-02T08:42:12;19.15;;;11.27;;
36839;SDS011;24406;51.640;9.566;2023-07-02T08:47:13;16.60;;;10.10;;
36839;SDS011;24406;51.640;9.566;2023-07-02T08:52:15;16.08;;;10.35;;
36839;SDS011;24406;51.640;9.566;2023-07-02T08:57:20;19.27;;;11.50;;
36839;SDS011;24406;51.640;9.566;2023-07-02T09:02:31;22.23;;;12.03;;
36839;SDS011;24406;51.640;9.566;2023-07-02T09:07:42;20.08;;;12.73;;
36839;SDS011;24406;51.640;9.566;2023-07-02T09:12:46;20.23;;;12.82;;
36839;SDS011;24406;51.640;9.566;2023-07-02T09:17:47;20.58;;;12.60;;
36839;SDS011;24406;51.640;9.566;2023-07-02T09:22:53;21.92;;;13.98;;
36839;SDS011;24406;51.640;9.566;2023-07-02T09:27:56;20.35;;;13.13;;
36839;SDS011;24406;51.640;9.566;2023-07-02T09:33:05;25.20;;;13.73;;
36839;SDS011;24406;51.640;9.566;2023-07-02T09:38:07;21.10;;;13.07;;
36839;SDS011;24406;51.640;9.566;2023-07-02T09:43:10;22.85;;;13.98;;
36839;SDS011;24406;51.640;9.566;2023-07-02T09:48:13;21.05;;;15.23;;
36839;SDS011;24406;51.640;9.566;2023-07-02T09:53:15;19.35;;;14.38;;
36839;SDS011;24406;51.640;9.566;2023-07-02T09:58:18;19.65;;;13.98;;
36839;SDS011;24406;51.640;9.566;2023-07-02T10:03:29;24.85;;;14.18;;
36839;SDS011;24406;51.640;9.566;2023-07-02T10:08:31;23.80;;;14.35;;
36839;SDS011;24406;51.640;9.566;2023-07-02T10:13:34;18.85;;;13.43;;
36839;SDS011;24406;51.640;9.566;2023-07-02T10:18:35;18.30;;;13.00;;
36839;SDS011;24406;51.640;9.566;2023-07-02T10:23:37;21.95;;;13.00;;
36839;SDS011;24406;51.640;9.566;2023-07-02T10:28:40;27.58;;;13.23;;
36839;SDS011;24406;51.640;9.566;2023-07-02T10:33:43;23.60;;;13.95;;
36839;SDS011;24406;51.640;9.566;2023-07-02T10:38:44;22.63;;;13.25;;
36839;SDS011;24406;51.640;9.566;2023-07-02T10:43:47;20.25;;;13.75;;
36839;SDS011;24406;51.640;9.566;2023-07-02T10:48:52;20.25;;;12.55;;
36839;SDS011;24406;51.640;9.566;2023-07-02T10:53:56;20.65;;;13.63;;
36839;SDS011;24406;51.640;9.566;2023-07-02T10:59:01;21.08;;;13.82;;
36839;SDS011;24406;51.640;9.566;2023-07-02T11:04:03;26.13;;;14.63;;
36839;SDS011;24406;51.640;9.566;2023-07-02T11:09:14;21.60;;;13.07;;
36839;SDS011;24406;51.640;9.566;2023-07-02T11:14:27;16.50;;;11.02;;
36839;SDS011;24406;51.640;9.566;2023-07-02T11:19:29;18.85;;;11.30;;
36839;SDS011;24406;51.640;9.566;2023-07-02T11:24:33;17.25;;;11.38;;
36839;SDS011;24406;51.640;9.566;2023-07-02T11:29:37;22.05;;;12.00;;
36839;SDS011;24406;51.640;9.566;2023-07-02T11:34:38;21.15;;;11.65;;
36839;SDS011;24406;51.640;9.566;2023-07-02T11:39:42;22.88;;;12.52;;
36839;SDS011;24406;51.640;9.566;2023-07-02T11:44:45;23.73;;;12.25;;
36839;SDS011;24406;51.640;9.566;2023-07-02T11:49:47;20.00;;;10.82;;
36839;SDS011;24406;51.640;9.566;2023-07-02T11:54:48;17.90;;;11.18;;
36839;SDS011;24406;51.640;9.566;2023-07-02T11:59:51;19.23;;;12.57;;
36839;SDS011;24406;51.640;9.566;2023-07-02T12:04:53;21.33;;;10.73;;
36839;SDS011;24406;51.640;9.566;2023-07-02T12:09:54;18.80;;;11.18;;
36839;SDS011;24406;51.640;9.566;2023-07-02T12:14:57;18.20;;;10.57;;
36839;SDS011;24406;51.640;9.566;2023-07-02T12:19:59;15.98;;;11.35;;
36839;SDS011;24406;51.640;9.566;2023-07-02T12:25:00;15.65;;;10.00;;
36839;SDS011;24406;51.640;9.566;2023-07-02T12:30:04;17.02;;;10.70;;
36839;SDS011;24406;51.640;9.566;2023-07-02T12:35:09;19.17;;;10.30;;
36839;SDS011;24406;51.640;9.566;2023-07-02T12:40:11;17.15;;;10.65;;
36839;SDS011;24406;51.640;9.566;2023-07-02T12:45:14;21.05;;;10.60;;
36839;SDS011;24406;51.640;9.566;2023-07-02T12:50:15;18.02;;;10.20;;
36839;SDS011;24406;51.640;9.566;2023-07-02T12:55:17;17.35;;;9.98;;
36839;SDS011;24406;51.640;9.566;2023-07-02T13:00:20;18.25;;;10.88;;
36839;SDS011;24406;51.640;9.566;2023-07-02T13:05:21;17.65;;;10.70;;
36839;SDS011;24406;51.640;9.566;2023-07-02T13:10:23;16.15;;;9.35;;
36839;SDS011;24406;51.640;9.566;2023-07-02T13:15:26;17.67;;;9.82;;
36839;SDS011;24406;51.640;9.566;2023-07-02T13:20:27;17.50;;;9.95;;
36839;SDS011;24406;51.640;9.566;2023-07-02T13:25:29;20.98;;;10.15;;
36839;SDS011;24406;51.640;9.566;2023-07-02T13:30:31;17.70;;;9.60;;
36839;SDS011;24406;51.640;9.566;2023-07-02T13:35:33;22.10;;;9.95;;
36839;SDS011;24406;51.640;9.566;2023-07-02T13:40:37;16.90;;;9.77;;
36839;SDS011;24406;51.640;9.566;2023-07-02T13:45:40;25.10;;;10.05;;
36839;SDS011;24406;51.640;9.566;2023-07-02T13:50:41;18.33;;;9.60;;
36839;SDS011;24406;51.640;9.566;2023-07-02T13:55:43;15.10;;;9.55;;
36839;SDS011;24406;51.640;9.566;2023-07-02T14:00:46;18.95;;;9.95;;
36839;SDS011;24406;51.640;9.566;2023-07-02T14:05:47;21.35;;;10.18;;
36839;SDS011;24406;51.640;9.566;2023-07-02T14:10:50;19.70;;;10.80;;
36839;SDS011;24406;51.640;9.566;2023-07-02T14:15:53;14.02;;;9.68;;
36839;SDS011;24406;51.640;9.566;2023-07-02T14:21:35;14.98;;;9.98;;
36839;SDS011;24406;51.640;9.566;2023-07-02T14:26:32;16.50;;;9.90;;
36839;SDS011;24406;51.640;9.566;2023-07-02T14:31:34;18.75;;;10.48;;
36839;SDS011;24406;51.640;9.566;2023-07-02T14:37:01;20.67;;;10.85;;
36839;SDS011;24406;51.640;9.566;2023-07-02T14:42:18;22.52;;;11.02;;
36839;SDS011;24406;51.640;9.566;2023-07-02T14:47:20;16.50;;;10.80;;
36839;SDS011;24406;51.640;9.566;2023-07-02T14:52:22;17.05;;;9.25;;
36839;SDS011;24406;51.640;9.566;2023-07-02T14:57:23;18.42;;;10.43;;
36839;SDS011;24406;51.640;9.566;2023-07-02T15:02:26;19.73;;;10.20;;
36839;SDS011;24406;51.640;9.566;2023-07-02T15:07:28;15.35;;;9.57;;
36839;SDS011;24406;51.640;9.566;2023-07-02T15:12:29;15.65;;;9.70;;
36839;SDS011;24406;51.640;9.566;2023-07-02T15:17:32;17.95;;;10.27;;
36839;SDS011;24406;51.640;9.566;2023-07-02T15:22:33;21.92;;;11.13;;
36839;SDS011;24406;51.640;9.566;2023-07-02T15:27:35;18.65;;;9.80;;
36839;SDS011;24406;51.640;9.566;2023-07-02T15:32:40;16.95;;;9.43;;
36839;SDS011;24406;51.640;9.566;2023-07-02T15:37:44;16.10;;;9.83;;
36839;SDS011;24406;51.640;9.566;2023-07-02T15:42:45;13.23;;;8.88;;
36839;SDS011;24406;51.640;9.566;2023-07-02T15:47:48;15.18;;;8.10;;
36839;SDS011;24406;51.640;9.566;2023-07-02T15:52:50;17.73;;;8.23;;
36839;SDS011;24406;51.640;9.566;2023-07-02T15:57:51;12.50;;;7.35;;
36839;SDS011;24406;51.640;9.566;2023-07-02T16:02:54;10.75;;;6.93;;
36839;SDS011;24406;51.640;9.566;2023-07-02T16:07:57;12.02;;;6.82;;
36839;SDS011;24406;51.640;9.566;2023-07-02T16:12:58;13.32;;;7.75;;
36839;SDS011;24406;51.640;9.566;2023-07-02T16:18:01;11.63;;;7.32;;
36839;SDS011;24406;51.640;9.566;2023-07-02T16:23:03;11.45;;;6.68;;
36839;SDS011;24406;51.640;9.566;2023-07-02T16:28:05;9.38;;;6.65;;
36839;SDS011;24406;51.640;9.566;2023-07-02T16:33:08;12.70;;;7.47;;
36839;SDS011;24406;51.640;9.566;2023-07-02T16:38:10;16.00;;;7.18;;
36839;SDS011;24406;51.640;9.566;2023-07-02T16:43:11;12.48;;;6.30;;
36839;SDS011;24406;51.640;9.566;2023-07-02T16:48:14;11.07;;;6.47;;
36839;SDS011;24406;51.640;9.566;2023-07-02T16:53:19;11.10;;;6.72;;
36839;SDS011;24406;51.640;9.566;2023-07-02T16:58:21;14.45;;;7.07;;
36839;SDS011;24406;51.640;9.566;2023-07-02T17:03:23;14.38;;;7.15;;
36839;SDS011;24406;51.640;9.566;2023-07-02T17:08:25;18.02;;;6.45;;
36839;SDS011;24406;51.640;9.566;2023-07-02T17:13:26;10.43;;;6.88;;
36839;SDS011;24406;51.640;9.566;2023-07-02T17:18:30;14.77;;;7.00;;
36839;SDS011;24406;51.640;9.566;2023-07-02T17:23:32;12.18;;;7.03;;
36839;SDS011;24406;51.640;9.566;2023-07-02T17:28:36;12.30;;;7.45;;
36839;SDS011;24406;51.640;9.566;2023-07-02T17:33:39;12.70;;;7.50;;
36839;SDS011;24406;51.640;9.566;2023-07-02T17:38:40;15.45;;;8.07;;
36839;SDS011;24406;51.640;9.566;2023-07-02T17:43:41;13.52;;;7.72;;
36839;SDS011;24406;51.640;9.566;2023-07-02T17:48:44;11.93;;;6.72;;
36839;SDS011;24406;51.640;9.566;2023-07-02T17:53:46;16.83;;;7.65;;
36839;SDS011;24406;51.640;9.566;2023-07-02T17:58:49;15.07;;;8.20;;
36839;SDS011;24406;51.640;9.566;2023-07-02T18:03:52;14.00;;;8.05;;
36839;SDS011;24406;51.640;9.566;2023-07-02T18:08:53;13.32;;;7.55;;
36839;SDS011;24406;51.640;9.566;2023-07-02T18:13:55;11.07;;;7.95;;
36839;SDS011;24406;51.640;9.566;2023-07-02T18:19:03;12.35;;;8.27;;
36839;SDS011;24406;51.640;9.566;2023-07-02T18:24:14;12.60;;;8.15;;
36839;SDS011;24406;51.640;9.566;2023-07-02T18:29:16;11.90;;;8.20;;
36839;SDS011;24406;51.640;9.566;2023-07-02T18:34:19;13.45;;;8.32;;
36839;SDS011;24406;51.640;9.566;2023-07-02T18:39:20;12.85;;;8.20;;
36839;SDS011;24406;51.640;9.566;2023-07-02T18:44:23;11.85;;;8.10;;
36839;SDS011;24406;51.640;9.566;2023-07-02T18:49:29;16.00;;;8.63;;
36839;SDS011;24406;51.640;9.566;2023-07-02T18:54:34;15.27;;;8.90;;
36839;SDS011;24406;51.640;9.566;2023-07-02T18:59:36;14.45;;;8.27;;
36839;SDS011;24406;51.640;9.566;2023-07-02T19:04:39;13.73;;;8.48;;
36839;SDS011;24406;51.640;9.566;2023-07-02T19:09:41;12.57;;;8.43;;
36839;SDS011;24406;51.640;9.566;2023-07-02T19:14:43;16.48;;;9.90;;
36839;SDS011;24406;51.640;9.566;2023-07-02T19:19:46;17.83;;;10.38;;
36839;SDS011;24406;51.640;9.566;2023-07-02T19:24:48;18.23;;;10.55;;
36839;SDS011;24406;51.640;9.566;2023-07-02T19:29:49;19.08;;;10.88;;
36839;SDS011;24406;51.640;9.566;2023-07-02T19:34:57;17.30;;;10.32;;
36839;SDS011;24406;51.640;9.566;2023-07-02T19:39:59;17.02;;;9.95;;
36839;SDS011;24406;51.640;9.566;2023-07-02T19:45:00;14.40;;;9.52;;
36839;SDS011;24406;51.640;9.566;2023-07-02T19:50:04;14.95;;;9.23;;
36839;SDS011;24406;51.640;9.566;2023-07-02T20:00:28;12.68;;;8.55;;
36839;SDS011;24406;51.640;9.566;2023-07-02T20:05:32;16.60;;;9.95;;
36839;SDS011;24406;51.640;9.566;2023-07-02T20:10:34;19.90;;;10.95;;
36839;SDS011;24406;51.640;9.566;2023-07-02T20:15:39;18.67;;;10.73;;
36839;SDS011;24406;51.640;9.566;2023-07-02T20:20:42;15.43;;;9.27;;
36839;SDS011;24406;51.640;9.566;2023-07-02T20:25:47;17.42;;;9.15;;
36839;SDS011;24406;51.640;9.566;2023-07-02T20:31:08;15.18;;;9.27;;
36839;SDS011;24406;51.640;9.566;2023-07-02T20:36:13;14.85;;;9.98;;
36839;SDS011;24406;51.640;9.566;2023-07-02T20:41:15;13.13;;;9.98;;
36839;SDS011;24406;51.640;9.566;2023-07-02T20:46:21;16.95;;;9.90;;
36839;SDS011;24406;51.640;9.566;2023-07-02T20:51:25;18.88;;;10.95;;
36839;SDS011;24406;51.640;9.566;2023-07-02T20:56:38;14.88;;;9.88;;
36839;SDS011;24406;51.640;9.566;2023-07-02T21:01:41;18.15;;;10.68;;
36839;SDS011;24406;51.640;9.566;2023-07-02T21:06:52;20.67;;;10.70;;
36839;SDS011;24406;51.640;9.566;2023-07-02T21:11:54;18.90;;;10.55;;
36839;SDS011;24406;51.640;9.566;2023-07-02T21:17:05;23.05;;;11.95;;
36839;SDS011;24406;51.640;9.566;2023-07-02T21:22:21;18.40;;;10.93;;
36839;SDS011;24406;51.640;9.566;2023-07-02T21:27:24;12.60;;;9.93;;
36839;SDS011;24406;51.640;9.566;2023-07-02T21:32:39;17.70;;;10.43;;
36839;SDS011;24406;51.640;9.566;2023-07-02T21:37:47;15.00;;;9.77;;
36839;SDS011;24406;51.640;9.566;2023-07-02T21:42:54;15.85;;;9.93;;
36839;SDS011;24406;51.640;9.566;2023-07-02T21:47:58;14.18;;;9.52;;
36839;SDS011;24406;51.640;9.566;2023-07-02T21:53:35;21.25;;;10.43;;
36839;SDS011;24406;51.640;9.566;2023-07-02T21:58:36;20.90;;;11.07;;
36839;SDS011;24406;51.640;9.566;2023-07-02T22:03:38;17.95;;;11.30;;
36839;SDS011;24406;51.640;9.566;2023-07-02T22:08:55;14.95;;;10.18;;
36839;SDS011;24406;51.640;9.566;2023-07-02T22:14:16;17.80;;;10.75;;
36839;SDS011;24406;51.640;9.566;2023-07-02T22:19:26;21.83;;;10.93;;
36839;SDS011;24406;51.640;9.566;2023-07-02T22:24:31;18.17;;;10.90;;
36839;SDS011;24406;51.640;9.566;2023-07-02T22:29:33;18.35;;;11.02;;
36839;SDS011;24406;51.640;9.566;2023-07-02T22:34:34;15.90;;;10.65;;
36839;SDS011;24406;51.640;9.566;2023-07-02T22:39:37;12.95;;;9.32;;
36839;SDS011;24406;51.640;9.566;2023-07-02T22:44:39;15.38;;;9.85;;
36839;SDS011;24406;51.640;9.566;2023-07-02T22:49:41;18.05;;;10.68;;
36839;SDS011;24406;51.640;9.566;2023-07-02T22:54:44;17.10;;;10.30;;
36839;SDS011;24406;51.640;9.566;2023-07-02T22:59:45;20.77;;;11.15;;
36839;SDS011;24406;51.640;9.566;2023-07-02T23:04:47;15.00;;;10.30;;
36839;SDS011;24406;51.640;9.566;2023-07-02T23:09:49;15.65;;;10.60;;
36839;SDS011;24406;51.640;9.566;2023-07-02T23:14:51;24.17;;;11.50;;
36839;SDS011;24406;51.640;9.566;2023-07-02T23:19:52;17.23;;;11.57;;
36839;SDS011;24406;51.640;9.566;2023-07-02T23:24:55;17.13;;;11.77;;
36839;SDS011;24406;51.640;9.566;2023-07-02T23:29:57;22.08;;;12.23;;
36839;SDS011;24406;51.640;9.566;2023-07-02T23:35:01;19.65;;;12.23;;
36839;SDS011;24406;51.640;9.566;2023-07-02T23:40:04;19.38;;;13.38;;
36839;SDS011;24406;51.640;9.566;2023-07-02T23:45:08;16.85;;;11.45;;
36839;SDS011;24406;51.640;9.566;2023-07-02T23:50:10;15.65;;;11.70;;
36839;SDS011;24406;51.640;9.566;2023-07-02T23:55:14;14.02;;;11.35;;
